Time;durP1;ratioP1;P1;durP2;ratioP2;P2;SDS_P1;SDS_P2;PMS_P1;PMS_P2;Temp;Humidity;BMP_temperature;BMP_pressure;BME280_temperature;BME280_humidity;BME280_pressure;Samples;Min_cycle;Max_cycle;Signal;HPM_P1;HPM_P2
2024/04/11 00:01:15;;;;;;;;;6.00;3.00;;;;;15.68;57.63;102713.16;5199148;27;44161;-67
2024/04/11 00:03:40;;;;;;;;;4.25;3.50;;;;;15.77;57.68;102722.84;5219000;27;44003;-67
2024/04/11 00:06:06;;;;;;;;;4.25;2.25;;;;;15.73;58.21;102705.84;5172505;27;45679;-67
2024/04/11 00:08:31;;;;;;;;;3.00;3.00;;;;;15.73;57.41;102700.47;5220196;27;44116;-67
2024/04/11 00:10:56;;;;;;;;;2.00;2.00;;;;;15.68;57.43;102702.38;5177775;27;43885;-67
2024/04/11 00:13:22;;;;;;;;;3.50;3.00;;;;;15.72;57.56;102706.78;5191647;27;44138;-67
2024/04/11 00:15:53;;;;;;;;;3.00;3.00;;;;;15.82;57.77;102724.53;5205694;27;44128;-67
2024/04/11 00:18:19;;;;;;;;;2.25;2.25;;;;;15.72;58.14;102690.63;5217432;27;43801;-67
2024/04/11 00:20:45;;;;;;;;;4.25;2.00;;;;;15.81;58.11;102705.72;5220271;27;43812;-67
2024/04/11 00:23:10;;;;;;;;;2.75;1.25;;;;;15.64;58.04;102690.78;5205309;27;43789;-67
2024/04/11 00:25:35;;;;;;;;;5.75;4.00;;;;;15.81;57.73;102713.78;5220418;27;46390;-67
2024/04/11 00:28:01;;;;;;;;;3.75;3.00;;;;;15.72;57.47;102699.59;5221224;27;43775;-67
2024/04/11 00:30:27;;;;;;;;;2.75;2.75;;;;;15.70;57.94;102677.22;5196534;27;43869;-67
2024/04/11 00:32:53;;;;;;;;;3.00;3.00;;;;;15.64;57.83;102677.34;5221198;27;43853;-67
2024/04/11 00:35:18;;;;;;;;;2.50;2.00;;;;;15.85;57.61;102702.91;5191265;27;45963;-67
2024/04/11 00:37:44;;;;;;;;;4.50;2.00;;;;;15.78;57.56;102695.88;5185991;27;44857;-67
2024/04/11 00:40:09;;;;;;;;;3.00;2.00;;;;;15.67;57.76;102685.34;5217449;27;43844;-67
2024/04/11 00:42:35;;;;;;;;;1.50;1.50;;;;;15.66;57.04;102672.78;5220906;27;43883;-67
2024/04/11 00:45:06;;;;;;;;;3.00;3.00;;;;;15.69;57.59;102671.84;5219934;27;44039;-67
2024/04/11 00:47:33;;;;;;;;;2.00;2.00;;;;;15.68;57.85;102672.75;5191665;27;44717;-67
2024/04/11 00:49:59;;;;;;;;;4.25;2.00;;;;;15.64;57.98;102677.34;5190552;27;43975;-67
2024/04/11 00:52:25;;;;;;;;;4.50;2.00;;;;;15.85;57.02;102713.66;5221122;27;43980;-67
2024/04/11 00:54:52;;;;;;;;;4.50;3.00;;;;;15.64;58.39;102676.47;5219181;27;45116;-67
2024/04/11 00:57:19;;;;;;;;;2.25;2.25;;;;;15.78;57.98;102703.97;5202660;27;43895;-67
2024/04/11 00:59:45;;;;;;;;;3.00;3.00;;;;;15.61;57.41;102676.53;5221161;27;44095;-67
2024/04/11 01:02:11;;;;;;;;;3.00;3.00;;;;;15.77;57.88;102707.59;5205405;27;43959;-67
2024/04/11 01:04:36;;;;;;;;;2.25;2.00;;;;;15.56;58.75;102672.13;5191286;27;47027;-67
2024/04/11 01:07:10;;;;;;;;;3.50;2.00;;;;;15.61;57.92;102687.28;5220407;27;43841;-67
2024/04/11 01:09:43;;;;;;;;;2.00;2.00;;;;;15.70;59.06;102706.81;5221027;27;44043;-67
2024/04/11 01:12:12;;;;;;;;;3.75;3.00;;;;;15.51;58.04;102682.09;5209987;27;43971;-67
2024/04/11 01:14:38;;;;;;;;;2.00;2.00;;;;;15.68;58.47;102719.41;5224333;27;45016;-67
2024/04/11 01:17:03;;;;;;;;;2.00;2.00;;;;;15.45;58.31;102682.25;5243741;27;44049;-67
2024/04/11 01:19:29;;;;;;;;;2.25;2.25;;;;;15.50;58.89;102701.88;5252044;27;43847;-67
2024/04/11 01:21:56;;;;;;;;;2.00;2.00;;;;;15.59;58.20;102722.31;5211612;27;43916;-67
2024/04/11 01:24:21;;;;;;;;;2.25;2.25;;;;;15.50;58.96;102709.03;5249173;27;44143;-67
2024/04/11 01:26:47;;;;;;;;;3.25;3.00;;;;;15.58;59.04;102723.22;5218993;27;43893;-67
2024/04/11 01:29:13;;;;;;;;;3.25;2.00;;;;;15.64;58.64;102727.59;5253381;27;44009;-67
2024/04/11 01:31:38;;;;;;;;;3.00;3.00;;;;;15.49;58.86;102688.47;5221549;27;44050;-67
2024/04/11 01:34:06;;;;;;;;;2.75;2.50;;;;;15.55;59.46;102705.34;5254336;27;44128;-67
2024/04/11 01:36:32;;;;;;;;;5.75;2.00;;;;;15.48;59.34;102700.13;5254106;27;43901;-67
2024/04/11 01:38:57;;;;;;;;;4.00;2.00;;;;;15.49;58.92;102708.16;5254559;27;43854;-67
2024/04/11 01:41:23;;;;;;;;;2.75;2.75;;;;;15.44;59.88;102690.38;5208915;27;43929;-67
2024/04/11 01:43:49;;;;;;;;;2.25;2.00;;;;;15.47;60.11;102690.28;5249561;27;44878;-67
2024/04/11 01:46:18;;;;;;;;;5.75;4.00;;;;;15.34;59.85;102679.78;5210985;27;43992;-67
2024/04/11 01:48:43;;;;;;;;;4.00;3.50;;;;;15.38;58.92;102685.97;5250250;27;43918;-67
2024/04/11 01:51:09;;;;;;;;;4.00;3.00;;;;;15.45;59.75;102693.03;5241856;27;43772;-67
2024/04/11 01:53:37;;;;;;;;;2.75;2.75;;;;;15.33;60.31;102677.13;5250208;27;45848;-67
2024/04/11 01:56:04;;;;;;;;;3.75;2.25;;;;;15.44;60.61;102693.94;5245057;27;43909;-67
2024/04/11 01:58:29;;;;;;;;;3.00;3.00;;;;;15.39;59.72;102687.75;5221342;27;43993;-67
2024/04/11 02:01:09;;;;;;;;;5.50;3.00;;;;;15.45;60.04;102702.88;5234869;27;43910;-67
2024/04/11 02:03:38;;;;;;;;;4.00;3.00;;;;;15.24;59.74;102661.19;5231816;27;44143;-67
2024/04/11 02:06:05;;;;;;;;;4.75;2.25;;;;;15.36;59.94;102686.00;5246218;27;44274;-67
2024/04/11 02:08:30;;;;;;;;;3.25;2.00;;;;;15.26;60.22;102671.00;5254652;27;44353;-67
2024/04/11 02:10:56;;;;;;;;;4.00;2.25;;;;;15.37;60.43;102698.56;5218304;27;52166;-67
2024/04/11 02:13:21;;;;;;;;;2.00;2.00;;;;;15.42;60.64;102711.00;5224040;27;44895;-67
2024/04/11 02:15:47;;;;;;;;;2.50;2.50;;;;;15.18;59.97;102676.56;5250211;27;43963;-67
2024/04/11 02:18:13;;;;;;;;;2.50;2.25;;;;;15.32;60.32;102691.50;5223140;27;44079;-67
2024/04/11 02:20:38;;;;;;;;;2.75;2.75;;;;;15.43;60.10;102710.97;5252626;27;43885;-67
2024/04/11 02:23:04;;;;;;;;;2.50;1.00;;;;;15.28;61.29;102679.03;5234669;27;44030;-67
2024/04/11 02:25:30;;;;;;;;;3.25;2.50;;;;;15.21;61.07;102674.72;5253938;27;44258;-67
2024/04/11 02:27:56;;;;;;;;;2.00;2.00;;;;;15.21;61.01;102663.94;5231550;27;44022;-67
2024/04/11 02:30:21;;;;;;;;;5.75;1.50;;;;;15.30;61.33;102685.25;5254031;27;43895;-67
2024/04/11 02:32:46;;;;;;;;;2.00;2.00;;;;;15.14;61.40;102655.13;5232152;27;44058;-67
2024/04/11 02:35:14;;;;;;;;;2.00;2.00;;;;;15.12;61.63;102660.53;5253757;27;50458;-67
2024/04/11 02:37:39;;;;;;;;;4.75;3.00;;;;;15.20;61.54;102679.19;5213999;27;43976;-67
2024/04/11 02:40:09;;;;;;;;;2.00;1.00;;;;;15.33;61.73;102702.22;5253893;27;43918;-67
2024/04/11 02:42:38;;;;;;;;;2.00;2.00;;;;;15.24;62.66;102685.41;5238949;27;43845;-67
2024/04/11 02:45:07;;;;;;;;;2.00;2.00;;;;;15.32;62.49;102694.22;5253623;27;44250;-67
2024/04/11 02:47:34;;;;;;;;;3.50;2.75;;;;;15.17;62.71;102660.44;5212263;27;44046;-68
2024/04/11 02:49:59;;;;;;;;;4.25;2.50;;;;;15.30;62.11;102682.56;5252708;27;44422;-67
2024/04/11 02:52:25;;;;;;;;;2.25;1.50;;;;;15.24;62.22;102683.59;5209769;27;45764;-67
2024/04/11 02:54:50;;;;;;;;;3.25;1.00;;;;;15.17;62.22;102669.38;5222700;27;43778;-67
2024/04/11 02:57:16;;;;;;;;;2.00;2.00;;;;;15.26;62.17;102688.94;5247397;27;43766;-67
2024/04/11 02:59:43;;;;;;;;;3.00;2.00;;;;;15.24;62.81;102682.72;5250362;27;43941;-67
2024/04/11 03:02:10;;;;;;;;;2.25;2.25;;;;;15.22;62.63;102680.06;5234863;27;44949;-67
2024/04/11 03:04:35;;;;;;;;;2.50;2.00;;;;;15.26;62.65;102689.81;5253598;27;44263;-67
2024/04/11 03:07:01;;;;;;;;;5.25;2.00;;;;;15.27;62.45;102683.53;5223387;27;43943;-67
2024/04/11 03:09:26;;;;;;;;;2.75;2.75;;;;;15.26;61.86;102676.38;5253423;27;43834;-67
2024/04/11 03:11:51;;;;;;;;;3.50;3.00;;;;;15.37;62.42;102692.31;5239499;27;44808;-67
2024/04/11 03:14:17;;;;;;;;;4.00;2.75;;;;;15.12;63.01;102649.78;5188748;27;43913;-67
2024/04/11 03:16:42;;;;;;;;;3.00;3.00;;;;;15.23;63.64;102675.56;5208830;27;44246;-67
2024/04/11 03:19:08;;;;;;;;;3.25;2.50;;;;;15.33;63.74;102686.06;5209017;27;43948;-67
2024/04/11 03:21:34;;;;;;;;;2.00;2.00;;;;;15.29;63.29;102694.25;5186005;27;44763;-67
2024/04/11 03:23:59;;;;;;;;;3.25;3.25;;;;;15.16;62.66;102656.84;5219529;27;44446;-67
2024/04/11 03:26:25;;;;;;;;;3.50;3.00;;;;;15.35;63.73;102686.94;5218999;27;43907;-67
2024/04/11 03:28:50;;;;;;;;;5.25;4.50;;;;;15.13;62.79;102651.53;5219257;27;43918;-67
2024/04/11 03:31:18;;;;;;;;;2.00;2.00;;;;;15.28;63.19;102682.59;5218467;27;43872;-67
2024/04/11 03:33:46;;;;;;;;;2.00;1.50;;;;;15.14;63.57;102666.75;5219294;27;43940;-67
2024/04/11 03:36:12;;;;;;;;;2.75;2.75;;;;;15.30;63.04;102675.41;5217059;27;43937;-67
2024/04/11 03:38:39;;;;;;;;;3.00;2.75;;;;;15.25;64.00;102662.94;5210581;27;43957;-67
2024/04/11 03:41:09;;;;;;;;;4.50;2.00;;;;;15.13;64.05;102643.44;5189361;27;46220;-67
2024/04/11 03:43:37;;;;;;;;;1.75;1.75;;;;;15.09;63.73;102630.13;5212615;27;44306;-67
2024/04/11 03:46:21;;;;;;;;;2.50;2.50;;;;;15.08;64.16;102620.28;5192696;27;43911;-67
2024/04/11 03:48:50;;;;;;;;;2.00;2.00;;;;;15.28;63.80;102668.25;5218541;27;43922;-67
2024/04/11 03:51:18;;;;;;;;;1.50;1.50;;;;;15.15;63.81;102647.03;5190762;27;46631;-67
2024/04/11 03:53:44;;;;;;;;;2.00;2.00;;;;;15.08;64.62;102633.72;5220665;27;43951;-67
2024/04/11 03:56:14;;;;;;;;;3.00;2.00;;;;;15.24;64.40;102663.88;5221821;27;43963;-67
2024/04/11 03:58:40;;;;;;;;;7.50;2.75;;;;;15.19;63.74;102659.47;5221275;27;43922;-67
2024/04/11 04:01:12;;;;;;;;;3.00;2.25;;;;;15.05;65.45;102623.94;5221681;27;44001;-67
2024/04/11 04:03:45;;;;;;;;;4.00;4.00;;;;;15.14;64.54;102641.66;5200593;27;43940;-67
2024/04/11 04:06:12;;;;;;;;;2.25;2.00;;;;;15.18;64.96;102657.72;5221793;27;44230;-67
2024/04/11 04:08:40;;;;;;;;;2.25;2.00;;;;;15.15;64.48;102655.09;5203545;27;44016;-67
2024/04/11 04:11:06;;;;;;;;;4.00;3.75;;;;;15.24;65.11;102671.97;5221287;27;44884;-67
2024/04/11 04:13:37;;;;;;;;;2.00;2.00;;;;;15.12;65.17;102651.59;5176299;27;44047;-67
2024/04/11 04:16:05;;;;;;;;;2.50;2.25;;;;;15.28;65.57;102668.25;5192429;27;44125;-67
2024/04/11 04:18:31;;;;;;;;;3.25;2.75;;;;;15.32;65.49;102683.44;5191398;27;44018;-67
2024/04/11 04:20:58;;;;;;;;;3.25;2.00;;;;;15.36;64.88;102685.13;5213543;27;49228;-67
2024/04/11 04:23:24;;;;;;;;;2.00;2.00;;;;;15.16;64.53;102653.28;5203161;27;44343;-67
2024/04/11 04:26:04;;;;;;;;;2.00;2.00;;;;;15.32;64.65;102696.91;5221519;27;43847;-67
2024/04/11 04:28:32;;;;;;;;;2.00;2.00;;;;;15.19;66.25;102681.00;5180409;27;43894;-67
2024/04/11 04:31:17;;;;;;;;;3.25;2.25;;;;;15.26;66.01;102697.00;5221326;27;43911;-67
2024/04/11 04:33:48;;;;;;;;;2.25;2.25;;;;;15.09;65.09;102665.09;5183322;27;43870;-67
2024/04/11 04:36:18;;;;;;;;;3.00;2.00;;;;;15.03;66.16;102658.00;5221583;27;43982;-67
2024/04/11 04:38:44;;;;;;;;;3.25;2.00;;;;;15.09;66.17;102663.28;5211983;27;43847;-67
2024/04/11 04:41:11;;;;;;;;;5.00;3.00;;;;;15.11;66.46;102660.56;5202594;27;44202;-67
2024/04/11 04:43:38;;;;;;;;;3.00;2.00;;;;;15.26;66.06;102675.50;5217871;27;44189;-67
2024/04/11 04:46:05;;;;;;;;;5.00;2.00;;;;;15.22;65.63;102673.78;5221868;27;44006;-67
2024/04/11 04:48:31;;;;;;;;;2.00;2.00;;;;;15.09;66.42;102647.13;5220773;27;43791;-67
2024/04/11 04:50:56;;;;;;;;;2.00;1.75;;;;;15.07;66.52;102657.06;5186451;27;45562;-67
2024/04/11 04:53:21;;;;;;;;;1.00;1.00;;;;;15.16;66.91;102677.50;5218466;27;43907;-67
2024/04/11 04:55:47;;;;;;;;;1.00;1.00;;;;;15.05;66.79;102661.59;5219737;27;44501;-67
2024/04/11 04:58:12;;;;;;;;;2.25;2.00;;;;;15.09;66.82;102676.72;5174939;27;44362;-67
2024/04/11 05:00:37;;;;;;;;;2.25;2.25;;;;;15.10;66.60;102673.13;5221164;27;43937;-67
2024/04/11 05:03:08;;;;;;;;;2.00;2.00;;;;;15.03;67.75;102671.47;5205931;27;54491;-67
2024/04/11 05:05:36;;;;;;;;;4.25;3.00;;;;;15.25;66.49;102706.91;5221454;27;43868;-67
2024/04/11 05:08:06;;;;;;;;;3.00;2.00;;;;;15.07;67.02;102685.72;5209043;27;44000;-67
2024/04/11 05:10:35;;;;;;;;;3.75;2.50;;;;;15.04;67.22;102686.69;5221151;27;44113;-67
2024/04/11 05:13:01;;;;;;;;;3.00;3.00;;;;;15.23;67.29;102724.84;5211453;27;43905;-67
2024/04/11 05:15:28;;;;;;;;;2.25;2.25;;;;;15.21;67.98;102724.00;5236597;27;43815;-67
2024/04/11 05:17:54;;;;;;;;;2.00;1.00;;;;;15.26;69.05;102718.53;5244341;27;44095;-67
2024/04/11 05:20:27;;;;;;;;;3.00;1.25;;;;;15.20;68.61;102708.78;5254869;27;44600;-67
2024/04/11 05:22:53;;;;;;;;;4.00;1.00;;;;;15.07;69.05;102694.72;5234726;27;45150;-67
2024/04/11 05:25:19;;;;;;;;;1.00;1.00;;;;;15.09;68.38;102694.69;5224803;27;43946;-67
2024/04/11 05:27:44;;;;;;;;;4.00;2.00;;;;;15.06;68.72;102692.91;5248475;27;43951;-67
2024/04/11 05:30:13;;;;;;;;;3.50;1.25;;;;;15.00;69.57;102685.88;5254577;27;43922;-67
2024/04/11 05:32:44;;;;;;;;;0.75;0.75;;;;;15.26;69.44;102721.22;5242834;27;44153;-67
2024/04/11 05:35:09;;;;;;;;;2.00;2.00;;;;;15.16;69.79;102702.56;5242187;27;43984;-67
2024/04/11 05:37:36;;;;;;;;;1.75;1.00;;;;;15.15;69.64;102698.13;5253761;27;44103;-67
2024/04/11 05:40:05;;;;;;;;;2.50;2.00;;;;;15.19;68.79;102693.56;5224467;27;44872;-67
2024/04/11 05:42:35;;;;;;;;;2.00;2.00;;;;;14.98;69.61;102667.97;5245404;27;44292;-67
2024/04/11 05:45:03;;;;;;;;;2.00;1.00;;;;;15.15;70.17;102703.50;5243718;27;43951;-67
2024/04/11 05:47:30;;;;;;;;;2.00;1.00;;;;;14.99;69.74;102684.09;5247832;27;43854;-67
2024/04/11 05:49:55;;;;;;;;;3.00;1.50;;;;;15.02;69.23;102699.28;5223997;27;45761;-68
2024/04/11 05:52:21;;;;;;;;;3.00;1.75;;;;;15.07;69.67;102704.56;5248236;27;43958;-69
2024/04/11 05:54:51;;;;;;;;;2.75;2.75;;;;;15.06;69.57;102705.50;5245749;27;43981;-69
2024/04/11 05:57:16;;;;;;;;;4.00;2.00;;;;;15.14;69.34;102719.69;5223365;27;43954;-69
2024/04/11 05:59:42;;;;;;;;;4.00;4.00;;;;;15.09;69.87;102716.19;5251925;27;52789;-69
2024/04/11 06:02:13;;;;;;;;;2.25;2.00;;;;;15.07;69.92;102715.31;5215225;27;43970;-69
2024/04/11 06:04:39;;;;;;;;;2.75;2.00;;;;;15.04;70.78;102710.03;5228460;27;44024;-68
2024/04/11 06:07:04;;;;;;;;;2.25;2.00;;;;;15.08;71.02;102720.66;5215061;27;44001;-68
2024/04/11 06:09:29;;;;;;;;;2.50;2.50;;;;;15.08;70.21;102735.94;5219373;27;47081;-68
2024/04/11 06:11:55;;;;;;;;;3.25;3.25;;;;;15.02;70.75;102723.50;5236843;27;43961;-67
2024/04/11 06:14:20;;;;;;;;;3.25;2.00;;;;;15.15;70.49;102757.31;5249835;27;44232;-68
2024/04/11 06:16:45;;;;;;;;;2.50;2.50;;;;;15.07;70.51;102744.91;5218412;27;43952;-68
2024/04/11 06:19:11;;;;;;;;;4.75;2.00;;;;;15.08;70.92;102746.69;5213965;27;44750;-68
2024/04/11 06:21:45;;;;;;;;;3.00;1.25;;;;;15.08;70.34;102746.69;5217186;27;43944;-69
2024/04/11 06:24:10;;;;;;;;;4.00;4.00;;;;;15.14;71.01;102763.59;5196032;27;44160;-69
2024/04/11 06:26:36;;;;;;;;;1.00;1.00;;;;;15.03;70.58;102757.53;5188868;27;44042;-68
2024/04/11 06:29:01;;;;;;;;;3.00;3.00;;;;;15.06;71.09;102754.78;5200754;27;44733;-68
2024/04/11 06:31:30;;;;;;;;;3.00;2.00;;;;;15.23;71.86;102788.53;5208845;27;43888;-68
2024/04/11 06:33:57;;;;;;;;;2.00;2.00;;;;;15.07;71.40;102756.56;5219757;27;43915;-69
2024/04/11 06:36:22;;;;;;;;;2.50;2.00;;;;;15.06;71.21;102746.72;5218534;27;44259;-68
2024/04/11 06:38:48;;;;;;;;;3.00;2.50;;;;;14.95;71.37;102728.09;5219446;27;43849;-69
2024/04/11 06:41:18;;;;;;;;;1.50;1.50;;;;;15.08;71.42;102752.94;5208473;27;44001;-68
2024/04/11 06:43:46;;;;;;;;;2.50;1.00;;;;;15.17;71.96;102770.72;5193422;27;43868;-68
2024/04/11 06:46:13;;;;;;;;;2.75;2.75;;;;;15.15;72.42;102769.84;5187356;27;44125;-69
2024/04/11 06:48:39;;;;;;;;;1.00;1.00;;;;;15.10;71.87;102763.66;5213114;27;44097;-69
2024/04/11 06:51:06;;;;;;;;;1.00;1.00;;;;;15.15;71.54;102772.53;5185901;27;43952;-69
2024/04/11 06:53:32;;;;;;;;;2.00;1.50;;;;;15.08;71.96;102758.31;5219614;27;43924;-69
2024/04/11 06:55:58;;;;;;;;;2.00;2.00;;;;;15.25;71.40;102775.94;5187069;27;44161;-69
2024/04/11 06:58:24;;;;;;;;;2.00;2.00;;;;;15.14;71.98;102763.59;5210109;27;45024;-66
2024/04/11 07:00:59;;;;;;;;;6.00;3.00;;;;;15.23;71.59;102764.34;5168636;27;44076;-67
2024/04/11 07:03:26;;;;;;;;;4.50;3.00;;;;;15.11;72.44;102742.13;5181858;27;44044;-66
2024/04/11 07:05:59;;;;;;;;;2.25;2.25;;;;;15.34;72.94;102782.03;5202102;27;43932;-66
2024/04/11 07:08:30;;;;;;;;;3.00;2.00;;;;;15.33;72.39;102774.88;5187094;27;44309;-66
2024/04/11 07:10:58;;;;;;;;;4.25;3.00;;;;;15.17;72.74;102749.22;5188896;27;44179;-66
2024/04/11 07:13:25;;;;;;;;;5.00;3.00;;;;;15.16;72.73;102751.00;5169140;27;44348;-66
2024/04/11 07:15:50;;;;;;;;;3.00;3.00;;;;;15.33;72.41;102776.69;5224077;27;44087;-66
2024/04/11 07:18:17;;;;;;;;;4.00;4.00;;;;;15.22;73.14;102760.75;5229315;27;44785;-66
2024/04/11 07:20:50;;;;;;;;;4.00;2.75;;;;;15.11;73.01;102744.81;5235934;27;43910;-66
2024/04/11 07:23:17;;;;;;;;;1.75;0.00;;;;;15.38;73.03;102780.16;5211748;27;43958;-66
2024/04/11 07:25:43;;;;;;;;;2.00;2.00;;;;;15.24;72.78;102749.97;5227818;27;44207;-66
2024/04/11 07:28:09;;;;;;;;;2.25;2.00;;;;;15.22;73.90;102744.63;5239079;27;45293;-66
2024/04/11 07:30:38;;;;;;;;;2.00;2.00;;;;;15.24;73.35;102741.91;5242191;27;43881;-66
2024/04/11 07:33:06;;;;;;;;;2.00;2.00;;;;;15.26;73.16;102750.81;5236352;27;43959;-66
2024/04/11 07:35:37;;;;;;;;;4.25;3.75;;;;;15.40;73.77;102781.00;5234985;27;43923;-66
2024/04/11 07:38:03;;;;;;;;;4.25;3.50;;;;;15.30;73.23;102763.28;5224550;27;45182;-66
2024/04/11 07:40:32;;;;;;;;;2.00;2.00;;;;;15.35;72.93;102764.06;5240238;27;43946;-66
2024/04/11 07:43:05;;;;;;;;;4.75;4.00;;;;;15.36;72.96;102772.13;5239267;27;43904;-66
2024/04/11 07:45:35;;;;;;;;;3.00;3.00;;;;;15.39;73.12;102771.19;5245875;27;43931;-66
2024/04/11 07:48:02;;;;;;;;;4.00;4.00;;;;;15.43;72.69;102772.88;5230615;27;45089;-66
2024/04/11 07:50:27;;;;;;;;;6.00;4.00;;;;;15.46;72.88;102785.41;5239871;27;44160;-66
2024/04/11 07:53:09;;;;;;;;;3.50;3.50;;;;;15.26;72.90;102750.81;5238346;27;44116;-66
2024/04/11 07:55:38;;;;;;;;;3.75;3.50;;;;;15.62;72.69;102799.41;5198342;27;43903;-66
2024/04/11 07:58:06;;;;;;;;;4.25;4.25;;;;;15.64;72.39;102803.88;5237073;27;45874;-66
2024/04/11 08:00:47;;;;;;;;;3.00;3.00;;;;;15.56;73.32;102784.28;5212447;27;44253;-66
2024/04/11 08:03:18;;;;;;;;;3.00;3.00;;;;;15.51;73.44;102779.00;5206109;27;44081;-66
2024/04/11 08:05:44;;;;;;;;;4.00;4.00;;;;;15.64;72.46;102811.06;5242403;27;43997;-66
2024/04/11 08:08:12;;;;;;;;;3.25;3.25;;;;;15.51;72.70;102780.81;5234442;27;45165;-66
2024/04/11 08:10:40;;;;;;;;;3.75;3.75;;;;;15.56;73.40;102795.94;5243582;27;44126;-66
2024/04/11 08:13:08;;;;;;;;;4.25;4.25;;;;;15.72;73.10;102833.34;5247645;27;44000;-66
2024/04/11 08:15:38;;;;;;;;;3.50;3.25;;;;;15.59;73.55;102815.66;5234035;27;43875;-66
2024/04/11 08:18:11;;;;;;;;;4.75;3.75;;;;;15.57;73.46;102818.38;5218854;27;44881;-66
2024/04/11 08:20:46;;;;;;;;;5.00;3.75;;;;;15.58;74.13;102817.44;5226106;27;44152;-67
2024/04/11 08:23:12;;;;;;;;;3.00;3.00;;;;;15.52;73.12;102812.22;5240025;27;44371;-67
2024/04/11 08:25:37;;;;;;;;;4.25;3.75;;;;;15.59;73.28;102821.91;5248234;27;44183;-67
2024/04/11 08:28:03;;;;;;;;;5.25;4.00;;;;;15.57;74.00;102821.94;5206405;27;46774;-67
2024/04/11 08:30:31;;;;;;;;;7.00;3.00;;;;;15.81;73.59;102851.13;5245420;27;43951;-67
2024/04/11 08:32:59;;;;;;;;;4.00;3.00;;;;;15.80;72.99;102849.34;5205882;27;44403;-67
2024/04/11 08:35:27;;;;;;;;;3.50;2.00;;;;;15.83;73.73;102846.59;5246293;27;44038;-67
2024/04/11 08:38:03;;;;;;;;;5.25;4.25;;;;;15.87;73.44;102848.28;5251859;27;44994;-67
2024/04/11 08:40:34;;;;;;;;;3.25;3.25;;;;;15.86;73.21;102841.16;5213639;27;43911;-67
2024/04/11 08:43:02;;;;;;;;;4.75;3.00;;;;;15.73;73.95;102813.53;5224905;27;43842;-67
2024/04/11 08:45:33;;;;;;;;;7.75;4.50;;;;;15.88;72.86;102845.56;5217414;27;44052;-67
2024/04/11 08:48:01;;;;;;;;;8.00;6.00;;;;;15.86;73.88;102835.75;5247505;27;44080;-67
2024/04/11 08:50:29;;;;;;;;;3.50;2.25;;;;;15.85;74.79;102825.91;5227334;27;43924;-67
2024/04/11 08:52:59;;;;;;;;;2.25;2.25;;;;;15.95;73.35;102834.66;5219770;27;44019;-67
2024/04/11 08:55:26;;;;;;;;;1.75;1.75;;;;;15.95;74.02;102826.59;5221504;27;44396;-67
2024/04/11 08:57:55;;;;;;;;;1.75;1.75;;;;;16.17;73.26;102857.53;5222830;27;46723;-67
2024/04/11 09:00:22;;;;;;;;;3.00;1.00;;;;;16.15;74.03;102853.97;5211997;27;43923;-67
2024/04/11 09:02:48;;;;;;;;;3.00;2.00;;;;;16.07;74.16;102829.00;5245049;27;43895;-68
2024/04/11 09:05:14;;;;;;;;;2.75;2.25;;;;;16.09;73.56;102830.75;5250795;27;44233;-67
2024/04/11 09:07:44;;;;;;;;;3.50;2.75;;;;;16.15;74.41;102834.22;5234001;27;43998;-67
2024/04/11 09:10:12;;;;;;;;;2.00;2.00;;;;;16.27;73.73;102858.19;5245071;27;44026;-67
2024/04/11 09:12:38;;;;;;;;;5.00;3.75;;;;;16.19;73.58;102831.44;5202850;27;45167;-67
2024/04/11 09:15:07;;;;;;;;;3.00;2.00;;;;;16.22;73.92;102836.75;5250251;27;44218;-67
2024/04/11 09:17:46;;;;;;;;;3.00;3.00;;;;;16.25;72.89;102836.66;5240483;27;44242;-68
2024/04/11 09:20:19;;;;;;;;;2.50;2.50;;;;;16.28;73.67;102847.38;5247239;27;44199;-69
2024/04/11 09:22:50;;;;;;;;;3.00;3.00;;;;;16.19;74.56;102823.34;5234618;26;44196;-68
2024/04/11 09:25:17;;;;;;;;;3.00;2.25;;;;;16.40;73.80;102859.69;5244934;27;44075;-68
2024/04/11 09:27:50;;;;;;;;;3.00;2.50;;;;;16.43;74.20;102864.13;5232647;27;44384;-67
2024/04/11 09:30:22;;;;;;;;;1.75;1.75;;;;;16.44;73.98;102863.22;5240909;27;44081;-68
2024/04/11 09:32:48;;;;;;;;;5.00;4.75;;;;;16.28;74.25;102836.59;5231769;27;43951;-68
2024/04/11 09:35:16;;;;;;;;;2.25;2.00;;;;;16.38;73.67;102849.88;5214016;27;44181;-67
2024/04/11 09:37:44;;;;;;;;;2.75;2.75;;;;;16.38;73.41;102855.28;5248937;27;44188;-68
2024/04/11 09:40:11;;;;;;;;;4.00;3.00;;;;;16.43;74.01;102865.00;5216672;27;43935;-68
2024/04/11 09:42:43;;;;;;;;;5.00;2.75;;;;;16.46;74.35;102858.69;5221389;27;44382;-67
2024/04/11 09:45:18;;;;;;;;;4.00;3.00;;;;;16.40;73.38;102848.03;5221354;27;44385;-68
2024/04/11 09:47:47;;;;;;;;;3.50;3.50;;;;;16.42;73.63;102849.78;5232092;27;44099;-68
2024/04/11 09:50:16;;;;;;;;;3.00;2.00;;;;;16.68;74.09;102884.19;5242208;27;44453;-67
2024/04/11 09:52:44;;;;;;;;;4.00;3.00;;;;;16.51;73.59;102854.06;5248886;27;44003;-68
2024/04/11 09:55:15;;;;;;;;;2.50;2.50;;;;;16.55;74.08;102854.88;5202722;27;44071;-68
2024/04/11 09:57:44;;;;;;;;;5.50;2.00;;;;;16.67;74.22;102874.34;5241044;27;44365;-68
2024/04/11 10:00:22;;;;;;;;;4.00;2.75;;;;;16.62;73.94;102862.78;5238972;27;45585;-68
2024/04/11 10:02:52;;;;;;;;;2.00;2.00;;;;;16.62;74.48;102861.88;5236166;27;44042;-68
2024/04/11 10:05:23;;;;;;;;;4.50;2.25;;;;;16.72;74.36;102884.13;5230073;27;43927;-67
2024/04/11 10:07:57;;;;;;;;;2.00;2.00;;;;;16.85;74.05;102896.41;5251735;27;44170;-68
2024/04/11 10:10:27;;;;;;;;;3.00;3.00;;;;;16.70;74.05;102872.50;5220610;27;43847;-67
2024/04/11 10:12:54;;;;;;;;;1.25;1.25;;;;;16.73;74.26;102875.13;5205341;27;45477;-68
2024/04/11 10:15:21;;;;;;;;;5.50;4.00;;;;;16.73;74.40;102870.59;5229399;27;44004;-68
2024/04/11 10:18:08;;;;;;;;;3.75;3.75;;;;;16.97;74.17;102896.13;5212023;27;44092;-67
2024/04/11 10:21:02;;;;;;;;;2.00;2.00;;;;;17.02;74.18;102894.19;5203381;27;43870;-67
2024/04/11 10:23:32;;;;;;;;;2.00;2.00;;;;;16.90;74.33;102881.00;5200098;27;43924;-68
2024/04/11 10:25:59;;;;;;;;;3.00;2.00;;;;;16.89;74.86;102872.94;5192890;27;44016;-68
2024/04/11 10:28:51;;;;;;;;;5.50;3.00;;;;;17.01;74.30;102881.63;5204386;27;44257;-69
2024/04/11 10:31:19;;;;;;;;;4.00;3.50;;;;;17.22;73.62;102906.28;5189366;27;44067;-68
2024/04/11 10:33:58;;;;;;;;;3.00;3.00;;;;;17.06;73.55;102862.63;5211896;27;44135;-68
2024/04/11 10:36:25;;;;;;;;;3.00;2.50;;;;;17.04;73.94;102848.31;5207747;27;44967;-68
2024/04/11 10:38:57;;;;;;;;;5.00;3.25;;;;;17.38;73.68;102891.44;5210626;27;44193;-67
2024/04/11 10:41:23;;;;;;;;;2.00;2.00;;;;;17.32;73.53;102866.44;5186526;27;45006;-67
2024/04/11 10:43:51;;;;;;;;;3.00;2.00;;;;;17.34;73.29;102862.78;5195063;27;44051;-68
2024/04/11 10:46:20;;;;;;;;;3.00;2.00;;;;;17.38;73.22;102856.34;5207836;27;45887;-67
2024/04/11 10:48:52;;;;;;;;;4.50;3.50;;;;;17.34;74.23;102834.88;5176265;27;46046;-68
2024/04/11 10:51:20;;;;;;;;;4.00;2.00;;;;;17.52;73.34;102857.78;5190638;27;44228;-67
2024/04/11 10:54:09;;;;;;;;;3.00;2.00;;;;;17.68;73.87;102878.03;5204977;27;44134;-67
2024/04/11 10:56:44;;;;;;;;;4.25;4.00;;;;;17.70;73.33;102861.78;5204784;27;43860;-67
2024/04/11 10:59:26;;;;;;;;;4.00;3.25;;;;;17.73;72.86;102862.59;5195559;27;44313;-67
2024/04/11 11:02:10;;;;;;;;;2.50;2.50;;;;;17.78;73.10;102862.47;5186800;27;46078;-68
2024/04/11 11:04:43;;;;;;;;;3.25;2.50;;;;;17.77;72.59;102856.19;5208776;27;44023;-68
2024/04/11 11:07:10;;;;;;;;;2.50;2.50;;;;;17.82;71.70;102847.03;5197151;27;44155;-68
2024/04/11 11:09:42;;;;;;;;;3.50;3.00;;;;;18.01;72.17;102886.13;5179715;27;45854;-68
2024/04/11 11:12:11;;;;;;;;;2.50;2.50;;;;;17.88;72.29;102858.59;5189066;27;43882;-68
2024/04/11 11:14:37;;;;;;;;;1.75;1.75;;;;;17.87;72.56;102846.00;5212480;27;44485;-68
2024/04/11 11:17:07;;;;;;;;;4.75;3.75;;;;;18.00;72.04;102859.16;5218313;27;43946;-68
2024/04/11 11:19:34;;;;;;;;;4.50;3.25;;;;;18.12;72.34;102869.59;5187040;27;46598;-68
2024/04/11 11:22:00;;;;;;;;;3.50;3.50;;;;;18.00;72.04;102845.66;5178179;27;44451;-68
2024/04/11 11:24:28;;;;;;;;;2.50;2.50;;;;;18.06;72.34;102851.75;5214907;27;46166;-68
2024/04/11 11:26:58;;;;;;;;;2.50;2.50;;;;;18.19;71.60;102868.47;5217305;27;44058;-68
2024/04/11 11:29:28;;;;;;;;;3.00;3.00;;;;;18.05;71.69;102851.81;5217142;27;44901;-68